createdAt,value
2022-08-05T00:01:20.554Z,2.33
2022-08-05T00:04:13.716Z,2.05
2022-08-05T00:07:00.162Z,2.00
2022-08-05T00:10:06.429Z,1.90
2022-08-05T00:12:56.820Z,2.03
2022-08-05T00:15:55.519Z,1.83
2022-08-05T00:18:45.814Z,1.80
2022-08-05T00:21:35.863Z,1.77
2022-08-05T00:24:24.751Z,2.10
2022-08-05T00:27:35.572Z,1.52
2022-08-05T00:30:17.380Z,1.63
2022-08-05T00:33:04.433Z,1.90
2022-08-05T00:36:16.473Z,1.98
2022-08-05T00:38:56.284Z,2.25
2022-08-05T00:41:46.887Z,1.60
2022-08-05T00:44:38.825Z,2.00
2022-08-05T00:47:24.934Z,2.00
2022-08-05T00:50:11.349Z,2.05
2022-08-05T00:52:59.836Z,1.92
2022-08-05T00:55:46.111Z,3.42
2022-08-05T00:58:32.280Z,1.75
2022-08-05T01:01:24.813Z,2.10
2022-08-05T01:04:26.708Z,2.28
2022-08-05T01:07:17.899Z,2.00
2022-08-05T01:10:09.131Z,1.67
2022-08-05T01:13:13.121Z,2.20
2022-08-05T01:16:05.094Z,1.58
2022-08-05T01:18:56.407Z,2.28
2022-08-05T01:22:15.533Z,1.92
2022-08-05T01:25:20.160Z,1.73
2022-08-05T01:28:19.046Z,1.60
2022-08-05T01:31:05.149Z,2.22
2022-08-05T01:34:10.856Z,2.35
2022-08-05T01:37:02.910Z,2.40
2022-08-05T01:40:10.468Z,1.95
2022-08-05T01:43:02.295Z,1.65
2022-08-05T01:45:56.245Z,1.73
2022-08-05T01:48:44.001Z,1.90
2022-08-05T01:51:35.370Z,2.13
2022-08-05T01:54:27.183Z,1.92
2022-08-05T01:58:09.773Z,2.10
2022-08-05T02:00:21.170Z,2.00
2022-08-05T02:03:31.610Z,2.47
2022-08-05T02:06:33.442Z,2.15
2022-08-05T02:09:24.928Z,1.90
2022-08-05T02:12:11.102Z,2.22
2022-08-05T02:15:19.608Z,2.03
2022-08-05T02:18:28.652Z,2.00
2022-08-05T02:21:42.985Z,2.10
2022-08-05T02:24:33.092Z,1.98
2022-08-05T02:27:21.736Z,2.22
2022-08-05T02:30:51.652Z,1.90
2022-08-05T02:33:42.384Z,1.88
2022-08-05T02:36:31.583Z,1.73
2022-08-05T02:39:21.715Z,2.30
2022-08-05T02:42:08.666Z,1.90
2022-08-05T02:44:55.541Z,2.20
2022-08-05T02:48:06.555Z,2.30
2022-08-05T02:50:51.632Z,1.58
2022-08-05T02:53:39.619Z,1.55
2022-08-05T02:56:27.438Z,2.50
2022-08-05T02:59:13.961Z,2.35
2022-08-05T03:02:01.677Z,1.90
2022-08-05T03:04:53.250Z,2.10
2022-08-05T03:08:00.409Z,1.90
2022-08-05T03:11:53.659Z,2.20
2022-08-05T03:14:03.185Z,2.35
2022-08-05T03:16:51.795Z,2.47
2022-08-05T03:19:39.451Z,2.35
2022-08-05T03:22:31.944Z,2.75
2022-08-05T03:25:33.700Z,2.60
2022-08-05T03:28:28.001Z,2.83
2022-08-05T03:31:54.194Z,2.95
2022-08-05T03:34:20.255Z,2.50
2022-08-05T03:37:30.925Z,2.35
2022-08-05T03:40:32.327Z,2.72
2022-08-05T03:44:09.236Z,2.50
2022-08-05T03:46:26.821Z,2.60
2022-08-05T03:49:15.690Z,2.22
2022-08-05T03:52:38.088Z,3.08
2022-08-05T03:56:04.041Z,2.90
2022-08-05T03:58:28.869Z,2.75
2022-08-05T04:01:20.756Z,2.40
2022-08-05T04:04:09.707Z,2.28
2022-08-05T04:06:57.413Z,2.70
2022-08-05T04:09:53.597Z,1.83
2022-08-05T04:15:24.742Z,2.60
2022-08-05T04:18:22.347Z,2.67
2022-08-05T04:21:11.104Z,2.30
2022-08-05T04:24:06.626Z,2.17
2022-08-05T04:26:55.268Z,2.10
2022-08-05T04:29:44.453Z,2.70
2022-08-05T04:32:33.303Z,2.90
2022-08-05T04:35:20.120Z,2.30
2022-08-05T04:38:06.900Z,2.38
2022-08-05T04:40:53.613Z,2.30
2022-08-05T04:43:40.667Z,3.15
2022-08-05T04:46:34.168Z,2.45
2022-08-05T04:49:24.870Z,2.75
2022-08-05T04:52:27.743Z,2.17
2022-08-05T04:55:15.209Z,3.13
2022-08-05T04:58:01.545Z,2.83
2022-08-05T05:00:50.658Z,3.00
2022-08-05T05:03:42.263Z,2.53
2022-08-05T05:06:39.000Z,2.50
2022-08-05T05:09:30.109Z,2.70
2022-08-05T05:12:17.776Z,3.15
2022-08-05T05:15:04.785Z,3.08
2022-08-05T05:17:57.867Z,2.33
2022-08-05T05:20:46.025Z,2.55
2022-08-05T05:23:39.503Z,2.33
2022-08-05T05:26:39.846Z,2.47
2022-08-05T05:30:03.430Z,2.70
2022-08-05T05:32:38.811Z,2.67
2022-08-05T05:35:26.981Z,2.05
2022-08-05T05:38:26.719Z,3.00
2022-08-05T05:41:40.622Z,3.15
2022-08-05T05:44:36.738Z,2.78
2022-08-05T05:47:23.469Z,2.50
2022-08-05T05:50:19.637Z,2.35
2022-08-05T05:53:21.059Z,2.50
2022-08-05T05:58:53.746Z,2.20
2022-08-05T06:02:00.526Z,2.88
2022-08-05T06:04:49.249Z,2.83
2022-08-05T06:07:41.622Z,2.83
2022-08-05T06:10:29.340Z,2.70
2022-08-05T06:13:15.774Z,2.03
2022-08-05T06:16:30.073Z,2.75
2022-08-05T06:19:08.113Z,2.67
2022-08-05T06:21:54.227Z,2.05
2022-08-05T06:24:42.043Z,1.98
2022-08-05T06:28:10.840Z,2.30
2022-08-05T06:30:41.339Z,2.20
2022-08-05T06:33:33.275Z,2.83
2022-08-05T06:36:56.701Z,2.25
2022-08-05T06:39:39.599Z,2.45
2022-08-05T06:42:27.981Z,2.40
2022-08-05T06:45:20.690Z,2.15
2022-08-05T06:48:36.173Z,2.30
2022-08-05T06:51:26.633Z,2.40
2022-08-05T06:54:18.968Z,2.17
2022-08-05T06:57:56.598Z,1.98
2022-08-05T07:00:12.524Z,2.15
2022-08-05T07:02:58.787Z,2.08
2022-08-05T07:05:46.351Z,2.30
2022-08-05T07:08:32.730Z,2.30
2022-08-05T07:11:22.008Z,2.10
2022-08-05T07:14:29.680Z,2.20
2022-08-05T07:18:00.013Z,2.38
2022-08-05T07:20:39.037Z,2.42
2022-08-05T07:23:26.245Z,2.10
2022-08-05T07:26:13.315Z,1.70
2022-08-05T07:28:59.975Z,1.80
2022-08-05T07:31:55.000Z,1.98
2022-08-05T07:35:00.293Z,1.98
2022-08-05T07:38:06.323Z,1.92
2022-08-05T07:41:04.500Z,1.67
2022-08-05T07:44:24.756Z,1.85
2022-08-05T07:47:14.032Z,1.90
2022-08-05T07:50:01.150Z,2.00
2022-08-05T07:52:52.739Z,2.15
2022-08-05T07:55:44.557Z,1.67
2022-08-05T07:58:54.622Z,1.95
2022-08-05T08:01:51.692Z,1.90
2022-08-05T08:04:38.781Z,2.10
2022-08-05T08:07:28.205Z,2.15
2022-08-05T08:10:14.688Z,1.58
2022-08-05T08:13:06.663Z,1.50
2022-08-05T08:16:49.908Z,1.73
2022-08-05T08:19:03.498Z,1.92
2022-08-05T08:21:52.630Z,2.25
2022-08-05T08:24:51.360Z,2.00
2022-08-05T08:27:45.179Z,1.77
2022-08-05T08:30:40.717Z,2.22
2022-08-05T08:33:37.834Z,2.13
2022-08-05T08:36:38.451Z,2.15
2022-08-05T08:39:49.495Z,2.28
2022-08-05T08:42:50.921Z,1.60
2022-08-05T08:45:40.802Z,1.92
2022-08-05T08:49:03.340Z,2.83
2022-08-05T08:52:04.012Z,2.20
2022-08-05T08:54:48.106Z,2.08
2022-08-05T08:57:42.355Z,2.45
2022-08-05T09:00:47.962Z,1.88
2022-08-05T09:03:45.359Z,1.73
2022-08-05T09:06:32.797Z,2.55
2022-08-05T09:09:23.163Z,2.28
2022-08-05T09:12:20.507Z,2.33
2022-08-05T10:10:40.394Z,1.73
2022-08-05T10:13:45.627Z,1.55
2022-08-05T10:16:37.943Z,1.60
2022-08-05T10:19:31.852Z,1.95
2022-08-05T10:22:43.233Z,1.95
2022-08-05T10:25:34.900Z,1.40
2022-08-05T10:28:29.465Z,1.20
2022-08-05T10:32:48.474Z,1.77
2022-08-05T10:34:30.027Z,1.20
2022-08-05T10:37:26.725Z,1.20
2022-08-05T10:40:27.903Z,1.13
2022-08-05T10:43:24.127Z,1.00
2022-08-05T10:46:19.450Z,1.45
2022-08-05T10:49:16.615Z,0.95
2022-08-05T10:52:05.209Z,1.55
2022-08-05T10:55:18.970Z,1.38
2022-08-05T10:58:11.862Z,1.48
2022-08-05T11:01:08.644Z,1.40
2022-08-05T11:04:06.249Z,1.23
2022-08-05T11:07:00.585Z,1.17
2022-08-05T11:09:49.435Z,1.45
2022-08-05T11:12:41.391Z,1.17
2022-08-05T11:20:17.397Z,1.27
2022-08-05T11:22:50.102Z,1.15
2022-08-05T11:26:04.814Z,1.10
2022-08-05T11:28:54.663Z,1.40
2022-08-05T11:31:54.532Z,1.52
2022-08-05T11:34:47.533Z,1.15
2022-08-05T11:38:29.465Z,1.80
2022-08-05T11:41:12.828Z,1.45
2022-08-05T11:44:40.736Z,1.38
2022-08-05T11:47:49.593Z,1.17
2022-08-05T11:50:58.329Z,1.48
2022-08-05T11:53:44.729Z,1.30
2022-08-05T11:56:53.439Z,1.42
2022-08-05T11:59:57.853Z,1.25
2022-08-05T12:02:54.193Z,1.38
2022-08-05T12:05:46.436Z,1.42
2022-08-05T12:08:35.668Z,1.33
2022-08-05T12:11:40.530Z,1.40
2022-08-05T12:14:43.234Z,1.15
2022-08-05T12:18:02.720Z,1.13
2022-08-05T12:20:42.711Z,1.35
2022-08-05T12:23:29.091Z,1.27
2022-08-05T12:26:16.207Z,1.20
2022-08-05T12:29:05.254Z,1.65
2022-08-05T12:31:56.952Z,1.17
2022-08-05T12:34:48.744Z,1.52
2022-08-05T12:37:42.485Z,1.05
2022-08-05T12:40:35.274Z,1.20
2022-08-05T12:43:24.497Z,1.20
2022-08-05T12:46:29.439Z,1.00
2022-08-05T12:50:04.815Z,1.40
2022-08-05T12:53:12.689Z,1.85
2022-08-05T13:07:01.206Z,1.40
2022-08-05T13:10:03.213Z,1.55
2022-08-05T13:16:28.553Z,1.20
2022-08-05T13:19:18.267Z,1.20
2022-08-05T13:22:07.289Z,1.65
2022-08-05T13:24:57.918Z,1.38
2022-08-05T13:27:50.415Z,1.60
2022-08-05T13:30:42.146Z,1.23
2022-08-05T13:34:21.627Z,1.48
2022-08-05T13:41:35.912Z,1.30
2022-08-05T14:00:26.763Z,1.42
2022-08-05T14:03:39.367Z,1.20
2022-08-05T14:06:40.803Z,1.33
2022-08-05T14:11:20.568Z,1.30
2022-08-05T14:16:07.314Z,1.17
2022-08-05T14:19:14.867Z,1.13
2022-08-05T14:27:17.155Z,1.67
2022-08-05T14:30:03.616Z,1.17
2022-08-05T14:32:53.483Z,1.35
2022-08-05T14:35:50.361Z,1.00
2022-08-05T14:38:40.893Z,0.75
2022-08-05T14:41:28.459Z,1.08
2022-08-05T14:44:21.913Z,1.13
2022-08-05T14:47:08.871Z,1.63
2022-08-05T14:50:17.401Z,1.33
2022-08-05T14:53:05.786Z,1.42
2022-08-05T14:55:52.685Z,1.20
2022-08-05T15:01:58.737Z,1.23
2022-08-05T15:05:08.699Z,1.15
2022-08-05T15:08:12.435Z,1.20
2022-08-05T15:11:13.359Z,1.02
2022-08-05T15:14:00.129Z,1.27
2022-08-05T15:16:49.888Z,0.85
2022-08-05T15:24:11.143Z,1.00
2022-08-05T15:27:26.734Z,0.90
2022-08-05T15:36:17.548Z,1.67
2022-08-05T15:41:01.804Z,1.10
2022-08-05T15:42:49.779Z,1.17
2022-08-05T15:45:38.845Z,1.42
2022-08-05T15:48:25.125Z,1.00
2022-08-05T15:51:15.034Z,1.25
2022-08-05T15:54:11.519Z,1.48
2022-08-05T15:57:34.567Z,1.23
2022-08-05T16:00:26.237Z,1.02
2022-08-05T16:03:34.046Z,1.20
2022-08-05T16:06:24.522Z,1.65
2022-08-05T16:09:10.170Z,0.98
2022-08-05T16:11:57.127Z,1.77
2022-08-05T16:14:44.289Z,1.33
2022-08-05T16:17:31.097Z,1.40
2022-08-05T16:20:19.772Z,2.10
2022-08-05T16:23:08.576Z,1.77
2022-08-05T16:26:08.469Z,1.65
2022-08-05T16:28:56.168Z,1.13
2022-08-05T16:31:57.136Z,1.55
2022-08-05T16:34:43.467Z,1.00
2022-08-05T16:38:03.072Z,1.20
2022-08-05T16:40:38.072Z,1.55
2022-08-05T16:43:28.249Z,1.50
2022-08-05T16:46:24.310Z,1.15
2022-08-05T16:49:14.165Z,1.10
2022-08-05T16:52:00.529Z,1.73
2022-08-05T16:54:48.825Z,1.70
2022-08-05T16:57:50.471Z,1.65
2022-08-05T17:00:39.911Z,1.55
2022-08-05T17:03:26.615Z,1.52
2022-08-05T17:06:16.538Z,1.80
2022-08-05T17:09:06.642Z,1.23
2022-08-05T17:11:59.740Z,1.80
2022-08-05T17:14:46.094Z,1.52
2022-08-05T17:17:42.384Z,1.50
2022-08-05T17:20:33.028Z,1.65
2022-08-05T17:24:03.113Z,1.55
2022-08-05T17:26:38.324Z,1.80
2022-08-05T17:29:53.047Z,1.38
2022-08-05T17:32:47.130Z,1.52
2022-08-05T17:36:07.855Z,1.95
2022-08-05T17:39:24.201Z,2.15
2022-08-05T17:42:22.017Z,1.40
2022-08-05T17:45:18.050Z,1.42
2022-08-05T17:48:19.980Z,1.60
2022-08-05T17:51:09.122Z,1.33
